Star City, Arkansas
Current Conditions -  °F | °C
As of 11:53 PM on Friday 19 Dec 2014 (Local Time) from KPBF Reporting Station
Overcast Overcast  
Wind Chill: 38°   Ceiling: 5000
Heat Index: 41°   Visibility: 10mi
Dew Point: 37°   Wind: 5mph
Humidity: 86%   Direction: 10°N
Pressure: 30.23"   Gusts: NA
Location:  33.94°N, 91.84°W
Report Text: KPBF 200553Z AUTO 01004KT 10SM OVC050 05/03 A3023 RMK AO2 SLP238 T00500028 10061 20050 400830050 50000
Loading
Personal Weather Stations






























Interactive Weather Map New forecast layout! Learn more

10-Day Weather Forecast

Advertisements
Track Severe Weather on mobile